sensor_id;sensor_type;location;lat;lon;timestamp;pressure;altitude;pressure_sealevel;temperature;humidity
26531;BME280;14201;43.188;24.160;2023-02-17T00:02:10;100495.28;;;4.33;67.32
26531;BME280;14201;43.188;24.160;2023-02-17T00:04:36;100495.06;;;4.30;67.82
26531;BME280;14201;43.188;24.160;2023-02-17T00:07:01;100497.19;;;4.36;67.73
26531;BME280;14201;43.188;24.160;2023-02-17T00:09:26;100493.72;;;4.36;67.29
26531;BME280;14201;43.188;24.160;2023-02-17T00:11:52;100483.69;;;4.39;67.56
26531;BME280;14201;43.188;24.160;2023-02-17T00:14:17;100481.72;;;4.46;67.55
26531;BME280;14201;43.188;24.160;2023-02-17T00:16:43;100467.94;;;4.36;67.63
26531;BME280;14201;43.188;24.160;2023-02-17T00:19:09;100480.88;;;4.25;67.81
26531;BME280;14201;43.188;24.160;2023-02-17T00:24:15;100480.97;;;4.37;67.28
26531;BME280;14201;43.188;24.160;2023-02-17T00:26:41;100476.47;;;4.34;67.49
26531;BME280;14201;43.188;24.160;2023-02-17T00:29:06;100475.94;;;4.39;67.11
26531;BME280;14201;43.188;24.160;2023-02-17T00:31:31;100459.66;;;4.40;66.47
26531;BME280;14201;43.188;24.160;2023-02-17T00:33:57;100463.59;;;4.24;66.61
26531;BME280;14201;43.188;24.160;2023-02-17T00:36:22;100466.06;;;4.23;66.86
26531;BME280;14201;43.188;24.160;2023-02-17T00:38:48;100462.88;;;4.15;67.03
26531;BME280;14201;43.188;24.160;2023-02-17T00:41:14;100462.88;;;4.15;66.58
26531;BME280;14201;43.188;24.160;2023-02-17T00:43:40;100452.97;;;4.09;66.75
26531;BME280;14201;43.188;24.160;2023-02-17T00:46:05;100464.31;;;4.11;66.58
26531;BME280;14201;43.188;24.160;2023-02-17T00:48:31;100455.66;;;4.11;66.25
26531;BME280;14201;43.188;24.160;2023-02-17T00:50:56;100452.16;;;4.10;66.82
26531;BME280;14201;43.188;24.160;2023-02-17T00:53:22;100456.31;;;4.08;66.77
26531;BME280;14201;43.188;24.160;2023-02-17T00:55:47;100448.84;;;4.01;67.14
26531;BME280;14201;43.188;24.160;2023-02-17T00:58:14;100447.72;;;3.98;66.19
26531;BME280;14201;43.188;24.160;2023-02-17T01:00:39;100441.41;;;3.94;66.60
26531;BME280;14201;43.188;24.160;2023-02-17T01:03:05;100437.03;;;3.93;66.53
26531;BME280;14201;43.188;24.160;2023-02-17T01:05:30;100434.69;;;3.96;66.32
26531;BME280;14201;43.188;24.160;2023-02-17T01:07:56;100438.56;;;3.91;66.09
26531;BME280;14201;43.188;24.160;2023-02-17T01:10:21;100428.13;;;3.89;66.54
26531;BME280;14201;43.188;24.160;2023-02-17T01:12:46;100430.34;;;3.85;65.82
26531;BME280;14201;43.188;24.160;2023-02-17T01:15:12;100429.97;;;3.80;65.76
26531;BME280;14201;43.188;24.160;2023-02-17T01:17:37;100426.00;;;3.73;66.40
26531;BME280;14201;43.188;24.160;2023-02-17T01:20:03;100427.91;;;3.76;66.71
26531;BME280;14201;43.188;24.160;2023-02-17T01:22:29;100419.69;;;3.70;66.82
26531;BME280;14201;43.188;24.160;2023-02-17T01:24:54;100426.16;;;3.65;67.01
26531;BME280;14201;43.188;24.160;2023-02-17T01:27:19;100424.72;;;3.58;67.43
26531;BME280;14201;43.188;24.160;2023-02-17T01:29:45;100426.94;;;3.53;66.96
26531;BME280;14201;43.188;24.160;2023-02-17T01:32:10;100429.91;;;3.38;67.85
26531;BME280;14201;43.188;24.160;2023-02-17T01:34:36;100425.78;;;3.40;67.78
26531;BME280;14201;43.188;24.160;2023-02-17T01:37:02;100423.47;;;3.32;67.82
26531;BME280;14201;43.188;24.160;2023-02-17T01:39:27;100423.31;;;3.41;67.50
26531;BME280;14201;43.188;24.160;2023-02-17T01:41:53;100417.81;;;3.16;67.18
26531;BME280;14201;43.188;24.160;2023-02-17T01:44:19;100427.84;;;3.13;66.76
26531;BME280;14201;43.188;24.160;2023-02-17T01:46:46;100436.09;;;3.09;67.75
26531;BME280;14201;43.188;24.160;2023-02-17T01:51:40;100430.03;;;3.08;69.05
26531;BME280;14201;43.188;24.160;2023-02-17T01:56:32;100424.72;;;2.96;69.03
26531;BME280;14201;43.188;24.160;2023-02-17T01:59:04;100426.41;;;3.06;68.43
26531;BME280;14201;43.188;24.160;2023-02-17T02:01:30;100421.53;;;2.99;69.08
26531;BME280;14201;43.188;24.160;2023-02-17T02:03:56;100405.22;;;3.09;68.90
26531;BME280;14201;43.188;24.160;2023-02-17T02:06:24;100418.97;;;2.99;68.37
26531;BME280;14201;43.188;24.160;2023-02-17T02:08:51;100424.50;;;2.93;68.58
26531;BME280;14201;43.188;24.160;2023-02-17T02:11:18;100424.72;;;2.96;68.79
26531;BME280;14201;43.188;24.160;2023-02-17T02:13:44;100423.97;;;2.87;68.72
26531;BME280;14201;43.188;24.160;2023-02-17T02:16:12;100408.78;;;2.80;68.57
26531;BME280;14201;43.188;24.160;2023-02-17T02:29:13;100418.13;;;2.20;71.07
26531;BME280;14201;43.188;24.160;2023-02-17T02:34:37;100421.03;;;2.43;70.66
26531;BME280;14201;43.188;24.160;2023-02-17T02:37:12;100429.13;;;2.38;70.96
26531;BME280;14201;43.188;24.160;2023-02-17T02:39:38;100430.66;;;2.35;69.92
26531;BME280;14201;43.188;24.160;2023-02-17T02:42:10;100430.13;;;2.29;69.78
26531;BME280;14201;43.188;24.160;2023-02-17T02:44:37;100418.34;;;2.12;69.76
26531;BME280;14201;43.188;24.160;2023-02-17T02:47:04;100430.38;;;2.03;69.84
26531;BME280;14201;43.188;24.160;2023-02-17T02:49:29;100425.88;;;2.01;69.72
26531;BME280;14201;43.188;24.160;2023-02-17T02:59:32;100443.44;;;1.48;71.72
26531;BME280;14201;43.188;24.160;2023-02-17T03:04:28;100434.19;;;1.50;71.22
26531;BME280;14201;43.188;24.160;2023-02-17T03:10:04;100423.78;;;1.48;71.83
26531;BME280;14201;43.188;24.160;2023-02-17T03:12:30;100434.59;;;1.54;71.88
26531;BME280;14201;43.188;24.160;2023-02-17T03:14:58;100422.53;;;1.53;71.97
26531;BME280;14201;43.188;24.160;2023-02-17T03:17:25;100430.59;;;1.48;71.91
26531;BME280;14201;43.188;24.160;2023-02-17T03:19:50;100427.94;;;1.56;71.78
26531;BME280;14201;43.188;24.160;2023-02-17T03:22:23;100431.47;;;1.48;72.31
26531;BME280;14201;43.188;24.160;2023-02-17T03:24:50;100422.06;;;1.57;72.26
26531;BME280;14201;43.188;24.160;2023-02-17T03:27:16;100430.09;;;1.52;72.30
26531;BME280;14201;43.188;24.160;2023-02-17T03:29:41;100421.50;;;1.51;72.48
26531;BME280;14201;43.188;24.160;2023-02-17T03:32:07;100433.00;;;1.46;71.98
26531;BME280;14201;43.188;24.160;2023-02-17T03:34:32;100427.38;;;1.50;72.13
26531;BME280;14201;43.188;24.160;2023-02-17T03:36:58;100435.09;;;1.50;72.17
26531;BME280;14201;43.188;24.160;2023-02-17T03:39:23;100426.63;;;1.51;72.47
26531;BME280;14201;43.188;24.160;2023-02-17T03:41:49;100435.09;;;1.50;72.55
26531;BME280;14201;43.188;24.160;2023-02-17T03:44:17;100431.84;;;1.62;72.08
26531;BME280;14201;43.188;24.160;2023-02-17T03:46:43;100434.25;;;1.41;72.19
26531;BME280;14201;43.188;24.160;2023-02-17T03:49:08;100431.47;;;1.48;72.33
26531;BME280;14201;43.188;24.160;2023-02-17T03:51:34;100434.94;;;1.49;72.36
26531;BME280;14201;43.188;24.160;2023-02-17T03:53:59;100429.53;;;1.46;71.44
26531;BME280;14201;43.188;24.160;2023-02-17T03:56:24;100432.59;;;1.42;71.91
26531;BME280;14201;43.188;24.160;2023-02-17T03:58:50;100426.00;;;1.54;71.50
26531;BME280;14201;43.188;24.160;2023-02-17T04:01:15;100425.78;;;1.42;71.83
26531;BME280;14201;43.188;24.160;2023-02-17T04:03:41;100429.19;;;1.32;73.07
26531;BME280;14201;43.188;24.160;2023-02-17T04:06:07;100435.06;;;1.31;73.05
26531;BME280;14201;43.188;24.160;2023-02-17T04:08:32;100436.44;;;1.28;72.93
26531;BME280;14201;43.188;24.160;2023-02-17T04:10:58;100433.97;;;1.38;72.67
26531;BME280;14201;43.188;24.160;2023-02-17T04:13:24;100430.03;;;1.42;72.88
26531;BME280;14201;43.188;24.160;2023-02-17T04:15:50;100436.81;;;1.41;72.69
26531;BME280;14201;43.188;24.160;2023-02-17T04:18:15;100434.53;;;1.44;72.30
26531;BME280;14201;43.188;24.160;2023-02-17T04:20:41;100440.22;;;1.50;71.91
26531;BME280;14201;43.188;24.160;2023-02-17T04:23:07;100435.50;;;1.36;72.63
26531;BME280;14201;43.188;24.160;2023-02-17T04:25:33;100438.34;;;1.39;72.35
26531;BME280;14201;43.188;24.160;2023-02-17T04:27:59;100441.69;;;1.38;72.32
26531;BME280;14201;43.188;24.160;2023-02-17T04:30:24;100449.59;;;1.50;71.93
26531;BME280;14201;43.188;24.160;2023-02-17T04:32:50;100442.72;;;1.40;72.45
26531;BME280;14201;43.188;24.160;2023-02-17T04:35:15;100446.59;;;1.45;71.04
26531;BME280;14201;43.188;24.160;2023-02-17T04:37:41;100440.75;;;1.37;71.18
26531;BME280;14201;43.188;24.160;2023-02-17T04:40:09;100450.31;;;1.30;71.19
26531;BME280;14201;43.188;24.160;2023-02-17T04:42:35;100444.84;;;1.16;72.42
26531;BME280;14201;43.188;24.160;2023-02-17T04:45:01;100449.59;;;1.03;73.16
26531;BME280;14201;43.188;24.160;2023-02-17T04:47:26;100451.38;;;1.04;72.80
26531;BME280;14201;43.188;24.160;2023-02-17T04:49:52;100453.63;;;1.10;72.92
26531;BME280;14201;43.188;24.160;2023-02-17T04:52:18;100443.25;;;1.27;72.41
26531;BME280;14201;43.188;24.160;2023-02-17T04:54:43;100449.75;;;1.24;72.60
26531;BME280;14201;43.188;24.160;2023-02-17T04:57:09;100458.50;;;1.26;72.98
26531;BME280;14201;43.188;24.160;2023-02-17T04:59:34;100454.97;;;1.15;73.51
26531;BME280;14201;43.188;24.160;2023-02-17T05:01:59;100456.63;;;1.14;73.16
26531;BME280;14201;43.188;24.160;2023-02-17T05:04:25;100458.84;;;1.20;73.09
26531;BME280;14201;43.188;24.160;2023-02-17T05:06:50;100454.63;;;1.21;72.76
26531;BME280;14201;43.188;24.160;2023-02-17T05:09:16;100461.88;;;1.16;73.10
26531;BME280;14201;43.188;24.160;2023-02-17T05:11:41;100461.53;;;1.22;72.91
26531;BME280;14201;43.188;24.160;2023-02-17T05:14:07;100463.50;;;1.24;72.67
26531;BME280;14201;43.188;24.160;2023-02-17T05:16:32;100466.97;;;1.25;72.70
26531;BME280;14201;43.188;24.160;2023-02-17T05:18:57;100466.53;;;1.20;72.03
26531;BME280;14201;43.188;24.160;2023-02-17T05:21:23;100477.19;;;1.06;73.25
26531;BME280;14201;43.188;24.160;2023-02-17T05:23:48;100473.41;;;1.11;73.54
26531;BME280;14201;43.188;24.160;2023-02-17T05:26:14;100479.81;;;0.97;74.27
26531;BME280;14201;43.188;24.160;2023-02-17T05:28:39;100476.72;;;1.10;72.88
26531;BME280;14201;43.188;24.160;2023-02-17T05:31:05;100466.91;;;1.14;72.82
26531;BME280;14201;43.188;24.160;2023-02-17T05:33:30;100476.78;;;1.01;73.24
26531;BME280;14201;43.188;24.160;2023-02-17T05:35:59;100479.81;;;0.97;74.09
26531;BME280;14201;43.188;24.160;2023-02-17T05:38:25;100476.28;;;1.05;75.00
26531;BME280;14201;43.188;24.160;2023-02-17T05:40:50;100479.19;;;1.00;75.06
26531;BME280;14201;43.188;24.160;2023-02-17T05:43:16;100479.75;;;1.06;75.66
26531;BME280;14201;43.188;24.160;2023-02-17T05:45:41;100489.13;;;1.05;76.16
26531;BME280;14201;43.188;24.160;2023-02-17T05:48:06;100484.38;;;1.18;76.71
26531;BME280;14201;43.188;24.160;2023-02-17T05:50:32;100499.69;;;1.27;76.47
26531;BME280;14201;43.188;24.160;2023-02-17T05:52:57;100499.94;;;1.11;77.33
26531;BME280;14201;43.188;24.160;2023-02-17T05:55:23;100497.28;;;1.29;77.03
26531;BME280;14201;43.188;24.160;2023-02-17T05:57:48;100500.31;;;1.52;77.18
26531;BME280;14201;43.188;24.160;2023-02-17T06:00:14;100497.41;;;1.77;76.13
26531;BME280;14201;43.188;24.160;2023-02-17T06:02:39;100511.78;;;1.75;76.71
26531;BME280;14201;43.188;24.160;2023-02-17T06:05:05;100512.34;;;1.81;77.45
26531;BME280;14201;43.188;24.160;2023-02-17T06:07:30;100518.50;;;2.02;77.74
26531;BME280;14201;43.188;24.160;2023-02-17T06:09:56;100510.47;;;2.08;76.24
26531;BME280;14201;43.188;24.160;2023-02-17T06:12:21;100532.31;;;2.13;75.01
26531;BME280;14201;43.188;24.160;2023-02-17T06:14:46;100525.84;;;2.27;76.38
26531;BME280;14201;43.188;24.160;2023-02-17T06:17:12;100523.16;;;2.25;77.54
26531;BME280;14201;43.188;24.160;2023-02-17T06:19:37;100531.31;;;2.40;77.14
26531;BME280;14201;43.188;24.160;2023-02-17T06:22:02;100531.91;;;2.56;76.62
26531;BME280;14201;43.188;24.160;2023-02-17T06:24:28;100521.22;;;2.81;76.39
26531;BME280;14201;43.188;24.160;2023-02-17T06:26:53;100527.78;;;2.98;76.21
26531;BME280;14201;43.188;24.160;2023-02-17T06:29:19;100527.06;;;3.20;75.75
26531;BME280;14201;43.188;24.160;2023-02-17T06:31:45;100529.53;;;3.18;74.69
26531;BME280;14201;43.188;24.160;2023-02-17T06:34:10;100536.09;;;3.35;74.25
26531;BME280;14201;43.188;24.160;2023-02-17T06:36:36;100538.19;;;3.49;72.99
26531;BME280;14201;43.188;24.160;2023-02-17T06:39:01;100538.94;;;3.59;72.55
26531;BME280;14201;43.188;24.160;2023-02-17T06:41:27;100533.94;;;3.60;73.47
26531;BME280;14201;43.188;24.160;2023-02-17T06:43:52;100535.34;;;3.77;72.57
26531;BME280;14201;43.188;24.160;2023-02-17T06:46:18;100541.78;;;3.72;72.50
26531;BME280;14201;43.188;24.160;2023-02-17T06:48:43;100546.97;;;3.82;73.37
26531;BME280;14201;43.188;24.160;2023-02-17T06:51:08;100547.31;;;4.07;72.04
26531;BME280;14201;43.188;24.160;2023-02-17T06:53:34;100542.41;;;4.21;73.15
26531;BME280;14201;43.188;24.160;2023-02-17T06:55:59;100534.09;;;4.35;74.18
26531;BME280;14201;43.188;24.160;2023-02-17T06:58:25;100537.53;;;4.78;75.19
26531;BME280;14201;43.188;24.160;2023-02-17T07:00:50;100538.94;;;5.07;72.88
26531;BME280;14201;43.188;24.160;2023-02-17T07:03:16;100540.88;;;5.31;72.96
26531;BME280;14201;43.188;24.160;2023-02-17T07:05:41;100540.69;;;5.74;70.62
26531;BME280;14201;43.188;24.160;2023-02-17T07:08:07;100532.78;;;6.06;69.85
26531;BME280;14201;43.188;24.160;2023-02-17T07:10:32;100531.34;;;6.34;70.88
26531;BME280;14201;43.188;24.160;2023-02-17T07:12:58;100535.38;;;6.77;69.86
26531;BME280;14201;43.188;24.160;2023-02-17T07:15:23;100532.50;;;7.09;68.53
26531;BME280;14201;43.188;24.160;2023-02-17T07:17:49;100535.06;;;7.35;64.96
26531;BME280;14201;43.188;24.160;2023-02-17T07:20:14;100538.47;;;7.59;65.01
26531;BME280;14201;43.188;24.160;2023-02-17T07:22:40;100543.53;;;7.82;65.32
26531;BME280;14201;43.188;24.160;2023-02-17T07:25:05;100537.22;;;8.17;65.25
26531;BME280;14201;43.188;24.160;2023-02-17T07:27:31;100540.25;;;8.50;61.55
26531;BME280;14201;43.188;24.160;2023-02-17T07:29:59;100537.75;;;8.78;61.65
26531;BME280;14201;43.188;24.160;2023-02-17T07:32:24;100542.47;;;9.12;61.19
26531;BME280;14201;43.188;24.160;2023-02-17T07:34:49;100546.72;;;9.38;57.58
26531;BME280;14201;43.188;24.160;2023-02-17T07:37:15;100535.72;;;9.72;56.39
26531;BME280;14201;43.188;24.160;2023-02-17T07:39:41;100544.47;;;10.02;56.46
26531;BME280;14201;43.188;24.160;2023-02-17T07:42:06;100543.22;;;10.25;56.09
26531;BME280;14201;43.188;24.160;2023-02-17T07:44:32;100547.44;;;10.53;53.97
26531;BME280;14201;43.188;24.160;2023-02-17T07:46:57;100536.44;;;10.74;54.11
26531;BME280;14201;43.188;24.160;2023-02-17T07:49:23;100538.03;;;11.03;52.70
26531;BME280;14201;43.188;24.160;2023-02-17T07:51:48;100542.06;;;11.29;51.55
26531;BME280;14201;43.188;24.160;2023-02-17T07:54:17;100540.78;;;11.54;50.52
26531;BME280;14201;43.188;24.160;2023-02-17T07:56:43;100543.19;;;11.83;48.15
26531;BME280;14201;43.188;24.160;2023-02-17T07:59:12;100546.13;;;12.06;47.88
26531;BME280;14201;43.188;24.160;2023-02-17T08:01:38;100541.09;;;12.27;47.71
26531;BME280;14201;43.188;24.160;2023-02-17T08:04:03;100550.69;;;12.45;46.80
26531;BME280;14201;43.188;24.160;2023-02-17T08:06:29;100551.72;;;12.66;46.95
26531;BME280;14201;43.188;24.160;2023-02-17T08:08:55;100544.81;;;12.86;47.72
26531;BME280;14201;43.188;24.160;2023-02-17T08:11:40;100559.47;;;13.20;46.64
26531;BME280;14201;43.188;24.160;2023-02-17T08:14:28;100545.72;;;13.42;44.90
26531;BME280;14201;43.188;24.160;2023-02-17T08:16:54;100546.47;;;13.59;45.53
26531;BME280;14201;43.188;24.160;2023-02-17T08:19:20;100539.44;;;13.77;44.51
26531;BME280;14201;43.188;24.160;2023-02-17T08:21:46;100541.56;;;14.07;45.08
26531;BME280;14201;43.188;24.160;2023-02-17T08:24:12;100531.16;;;14.30;44.05
26531;BME280;14201;43.188;24.160;2023-02-17T08:26:38;100535.97;;;14.61;43.05
26531;BME280;14201;43.188;24.160;2023-02-17T08:29:04;100534.75;;;14.96;42.52
26531;BME280;14201;43.188;24.160;2023-02-17T08:31:32;100540.28;;;15.27;41.02
26531;BME280;14201;43.188;24.160;2023-02-17T08:34:04;100543.44;;;15.65;39.33
26531;BME280;14201;43.188;24.160;2023-02-17T08:36:31;100536.47;;;15.89;40.13
26531;BME280;14201;43.188;24.160;2023-02-17T08:38:59;100538.00;;;16.08;38.82
26531;BME280;14201;43.188;24.160;2023-02-17T08:41:31;100538.66;;;16.27;37.55
26531;BME280;14201;43.188;24.160;2023-02-17T08:43:59;100536.22;;;16.33;36.39
26531;BME280;14201;43.188;24.160;2023-02-17T08:46:27;100535.28;;;16.58;34.66
26531;BME280;14201;43.188;24.160;2023-02-17T08:48:55;100540.09;;;16.99;34.63
26531;BME280;14201;43.188;24.160;2023-02-17T08:51:23;100538.97;;;17.19;34.61
26531;BME280;14201;43.188;24.160;2023-02-17T08:53:53;100540.63;;;17.46;33.33
26531;BME280;14201;43.188;24.160;2023-02-17T08:56:22;100542.97;;;17.67;33.75
26531;BME280;14201;43.188;24.160;2023-02-17T08:58:49;100547.47;;;18.01;31.13
26531;BME280;14201;43.188;24.160;2023-02-17T09:01:15;100548.81;;;18.19;31.76
26531;BME280;14201;43.188;24.160;2023-02-17T09:03:43;100543.59;;;18.22;31.59
26531;BME280;14201;43.188;24.160;2023-02-17T09:06:09;100548.53;;;18.43;30.07
26531;BME280;14201;43.188;24.160;2023-02-17T09:08:35;100543.69;;;18.60;31.08
26531;BME280;14201;43.188;24.160;2023-02-17T09:11:03;100537.53;;;18.26;29.62
26531;BME280;14201;43.188;24.160;2023-02-17T09:13:29;100542.31;;;18.06;29.64
26531;BME280;14201;43.188;24.160;2023-02-17T09:15:55;100525.56;;;18.04;30.92
26531;BME280;14201;43.188;24.160;2023-02-17T09:18:21;100544.19;;;18.45;31.23
26531;BME280;14201;43.188;24.160;2023-02-17T09:20:47;100542.59;;;18.88;31.72
26531;BME280;14201;43.188;24.160;2023-02-17T09:23:13;100534.84;;;18.94;29.95
26531;BME280;14201;43.188;24.160;2023-02-17T09:25:39;100534.19;;;19.04;29.15
26531;BME280;14201;43.188;24.160;2023-02-17T09:28:05;100529.13;;;19.14;28.34
26531;BME280;14201;43.188;24.160;2023-02-17T09:30:31;100528.81;;;19.41;28.55
26531;BME280;14201;43.188;24.160;2023-02-17T09:32:57;100528.97;;;19.48;28.80
26531;BME280;14201;43.188;24.160;2023-02-17T09:35:23;100531.28;;;19.74;28.02
26531;BME280;14201;43.188;24.160;2023-02-17T09:37:51;100523.91;;;20.05;27.72
26531;BME280;14201;43.188;24.160;2023-02-17T09:40:25;100515.34;;;20.18;28.11
26531;BME280;14201;43.188;24.160;2023-02-17T09:42:54;100516.31;;;20.25;27.71
26531;BME280;14201;43.188;24.160;2023-02-17T09:45:25;100523.66;;;20.41;26.97
26531;BME280;14201;43.188;24.160;2023-02-17T09:47:55;100504.31;;;20.45;27.25
26531;BME280;14201;43.188;24.160;2023-02-17T09:50:40;100519.56;;;20.60;26.97
26531;BME280;14201;43.188;24.160;2023-02-17T09:55:51;100525.88;;;20.70;27.09
26531;BME280;14201;43.188;24.160;2023-02-17T09:58:32;100522.69;;;20.93;26.66
26531;BME280;14201;43.188;24.160;2023-02-17T10:01:00;100519.41;;;21.11;26.35
26531;BME280;14201;43.188;24.160;2023-02-17T10:03:29;100510.53;;;21.07;25.55
26531;BME280;14201;43.188;24.160;2023-02-17T10:06:21;100513.19;;;21.09;26.28
26531;BME280;14201;43.188;24.160;2023-02-17T10:08:55;100507.81;;;21.01;25.92
26531;BME280;14201;43.188;24.160;2023-02-17T10:13:50;100511.78;;;20.71;27.52
26531;BME280;14201;43.188;24.160;2023-02-17T10:16:29;100516.47;;;20.89;26.31
26531;BME280;14201;43.188;24.160;2023-02-17T10:19:04;100503.47;;;21.06;26.72
26531;BME280;14201;43.188;24.160;2023-02-17T10:21:39;100503.16;;;20.84;26.98
26531;BME280;14201;43.188;24.160;2023-02-17T10:24:07;100506.75;;;20.90;27.41
26531;BME280;14201;43.188;24.160;2023-02-17T10:27:17;100493.84;;;21.14;26.52
26531;BME280;14201;43.188;24.160;2023-02-17T10:32:26;100502.78;;;21.21;25.95
26531;BME280;14201;43.188;24.160;2023-02-17T10:40:23;100486.16;;;21.33;26.58
26531;BME280;14201;43.188;24.160;2023-02-17T10:42:55;100480.94;;;21.40;26.47
26531;BME280;14201;43.188;24.160;2023-02-17T10:45:35;100494.28;;;21.45;25.84
26531;BME280;14201;43.188;24.160;2023-02-17T10:50:31;100482.88;;;21.55;25.54
26531;BME280;14201;43.188;24.160;2023-02-17T10:52:58;100493.41;;;21.48;26.27
26531;BME280;14201;43.188;24.160;2023-02-17T10:55:36;100487.28;;;21.53;25.62
26531;BME280;14201;43.188;24.160;2023-02-17T10:58:13;100488.78;;;21.34;25.92
26531;BME280;14201;43.188;24.160;2023-02-17T11:00:46;100493.28;;;21.40;25.88
26531;BME280;14201;43.188;24.160;2023-02-17T11:03:26;100482.69;;;21.38;25.56
26531;BME280;14201;43.188;24.160;2023-02-17T11:05:56;100495.84;;;21.31;26.24
26531;BME280;14201;43.188;24.160;2023-02-17T11:13:39;100489.03;;;21.51;26.37
26531;BME280;14201;43.188;24.160;2023-02-17T11:16:26;100490.03;;;21.62;25.82
26531;BME280;14201;43.188;24.160;2023-02-17T11:18:54;100488.19;;;21.52;25.92
26531;BME280;14201;43.188;24.160;2023-02-17T11:21:20;100492.25;;;21.27;25.24
26531;BME280;14201;43.188;24.160;2023-02-17T11:23:59;100496.44;;;21.08;26.01
26531;BME280;14201;43.188;24.160;2023-02-17T11:26:27;100506.34;;;21.23;25.61
26531;BME280;14201;43.188;24.160;2023-02-17T11:28:53;100471.44;;;20.89;25.75
26531;BME280;14201;43.188;24.160;2023-02-17T11:31:28;100487.09;;;20.72;26.95
26531;BME280;14201;43.188;24.160;2023-02-17T11:33:55;100478.75;;;21.06;26.08
26531;BME280;14201;43.188;24.160;2023-02-17T11:36:27;100486.03;;;21.27;26.45
26531;BME280;14201;43.188;24.160;2023-02-17T11:38:53;100483.50;;;21.36;26.84
26531;BME280;14201;43.188;24.160;2023-02-17T11:41:19;100488.03;;;21.43;25.54
26531;BME280;14201;43.188;24.160;2023-02-17T11:43:54;100483.06;;;20.99;26.04
26531;BME280;14201;43.188;24.160;2023-02-17T12:00:13;100463.19;;;20.68;26.68
26531;BME280;14201;43.188;24.160;2023-02-17T12:06:00;100465.00;;;20.70;26.51
26531;BME280;14201;43.188;24.160;2023-02-17T12:16:20;100464.69;;;20.52;27.12
26531;BME280;14201;43.188;24.160;2023-02-17T12:33:04;100436.56;;;20.58;28.06
26531;BME280;14201;43.188;24.160;2023-02-17T12:36:04;100435.81;;;20.65;27.47
26531;BME280;14201;43.188;24.160;2023-02-17T12:38:36;100427.72;;;20.58;28.06
26531;BME280;14201;43.188;24.160;2023-02-17T12:41:08;100425.88;;;20.52;26.81
26531;BME280;14201;43.188;24.160;2023-02-17T12:43:47;100427.94;;;20.69;27.31
26531;BME280;14201;43.188;24.160;2023-02-17T12:46:37;100406.91;;;20.82;27.12
26531;BME280;14201;43.188;24.160;2023-02-17T12:49:30;100415.50;;;20.66;27.32
26531;BME280;14201;43.188;24.160;2023-02-17T12:54:57;100405.09;;;20.19;27.81
26531;BME280;14201;43.188;24.160;2023-02-17T12:57:54;100406.97;;;20.27;27.88
26531;BME280;14201;43.188;24.160;2023-02-17T13:00:33;100401.78;;;20.32;27.92
26531;BME280;14201;43.188;24.160;2023-02-17T13:03:02;100401.97;;;20.46;27.81
26531;BME280;14201;43.188;24.160;2023-02-17T13:05:36;100404.47;;;20.37;27.84
26531;BME280;14201;43.188;24.160;2023-02-17T13:08:41;100399.34;;;20.46;28.13
26531;BME280;14201;43.188;24.160;2023-02-17T13:11:13;100400.28;;;20.51;27.50
26531;BME280;14201;43.188;24.160;2023-02-17T13:13:49;100406.50;;;20.53;27.22
26531;BME280;14201;43.188;24.160;2023-02-17T13:16:15;100392.34;;;20.51;27.36
26531;BME280;14201;43.188;24.160;2023-02-17T13:18:43;100401.03;;;20.42;27.19
26531;BME280;14201;43.188;24.160;2023-02-17T13:24:12;100397.38;;;20.33;27.29
26531;BME280;14201;43.188;24.160;2023-02-17T13:26:39;100401.88;;;20.38;27.59
26531;BME280;14201;43.188;24.160;2023-02-17T13:29:17;100399.28;;;20.41;27.36
26531;BME280;14201;43.188;24.160;2023-02-17T13:31:55;100399.19;;;20.37;27.26
26531;BME280;14201;43.188;24.160;2023-02-17T13:37:45;100406.88;;;20.20;27.73
26531;BME280;14201;43.188;24.160;2023-02-17T13:42:57;100398.13;;;20.25;26.94
26531;BME280;14201;43.188;24.160;2023-02-17T13:45:38;100401.28;;;20.00;27.00
26531;BME280;14201;43.188;24.160;2023-02-17T13:48:23;100392.28;;;19.90;27.07
26531;BME280;14201;43.188;24.160;2023-02-17T13:51:00;100399.84;;;19.68;28.07
26531;BME280;14201;43.188;24.160;2023-02-17T13:53:28;100396.22;;;19.63;28.25
26531;BME280;14201;43.188;24.160;2023-02-17T13:55:57;100386.41;;;19.56;29.05
26531;BME280;14201;43.188;24.160;2023-02-17T13:58:26;100377.44;;;19.48;28.37
26531;BME280;14201;43.188;24.160;2023-02-17T14:00:52;100387.97;;;19.45;27.83
26531;BME280;14201;43.188;24.160;2023-02-17T14:03:46;100389.69;;;19.43;28.24
26531;BME280;14201;43.188;24.160;2023-02-17T14:06:34;100379.41;;;19.13;28.01
26531;BME280;14201;43.188;24.160;2023-02-17T14:09:23;100385.13;;;18.88;28.89
26531;BME280;14201;43.188;24.160;2023-02-17T14:11:50;100375.44;;;18.89;29.21
26531;BME280;14201;43.188;24.160;2023-02-17T14:14:16;100378.03;;;18.87;29.43
26531;BME280;14201;43.188;24.160;2023-02-17T14:16:43;100376.03;;;18.77;28.25
26531;BME280;14201;43.188;24.160;2023-02-17T14:19:13;100372.06;;;18.57;28.83
26531;BME280;14201;43.188;24.160;2023-02-17T14:21:44;100380.63;;;18.45;29.54
26531;BME280;14201;43.188;24.160;2023-02-17T14:24:26;100382.44;;;18.47;28.95
26531;BME280;14201;43.188;24.160;2023-02-17T14:26:57;100375.16;;;18.37;28.83
26531;BME280;14201;43.188;24.160;2023-02-17T14:29:23;100379.31;;;18.26;29.04
26531;BME280;14201;43.188;24.160;2023-02-17T14:31:50;100380.09;;;18.22;29.02
26531;BME280;14201;43.188;24.160;2023-02-17T14:36:44;100372.03;;;18.16;29.37
26531;BME280;14201;43.188;24.160;2023-02-17T14:39:13;100375.31;;;18.05;29.91
26531;BME280;14201;43.188;24.160;2023-02-17T14:41:39;100371.72;;;18.02;30.13